sensor_id;sensor_type;location;lat;lon;timestamp;temperature;humidity
27819;DHT22;15192;44.854;10.046;2023-07-20T00:02:17;25.30;99.90
27819;DHT22;15192;44.854;10.046;2023-07-20T00:04:45;25.30;99.90
27819;DHT22;15192;44.854;10.046;2023-07-20T00:07:13;25.30;99.90
27819;DHT22;15192;44.854;10.046;2023-07-20T00:09:41;25.30;99.90
27819;DHT22;15192;44.854;10.046;2023-07-20T00:12:09;25.30;99.90
27819;DHT22;15192;44.854;10.046;2023-07-20T00:14:37;25.20;99.90
27819;DHT22;15192;44.854;10.046;2023-07-20T00:17:05;25.30;99.90
27819;DHT22;15192;44.854;10.046;2023-07-20T00:19:33;25.30;99.90
27819;DHT22;15192;44.854;10.046;2023-07-20T00:22:02;25.40;99.90
27819;DHT22;15192;44.854;10.046;2023-07-20T00:24:31;25.40;99.90
27819;DHT22;15192;44.854;10.046;2023-07-20T00:26:59;25.40;99.90
27819;DHT22;15192;44.854;10.046;2023-07-20T00:29:27;25.30;99.90
27819;DHT22;15192;44.854;10.046;2023-07-20T00:31:56;25.40;99.90
27819;DHT22;15192;44.854;10.046;2023-07-20T00:34:24;25.50;99.90
27819;DHT22;15192;44.854;10.046;2023-07-20T00:36:54;25.50;99.90
27819;DHT22;15192;44.854;10.046;2023-07-20T00:39:23;25.50;99.90
27819;DHT22;15192;44.854;10.046;2023-07-20T00:41:51;25.50;99.90
27819;DHT22;15192;44.854;10.046;2023-07-20T00:44:19;25.50;99.90
27819;DHT22;15192;44.854;10.046;2023-07-20T00:46:46;25.50;99.90
27819;DHT22;15192;44.854;10.046;2023-07-20T00:49:15;25.50;99.90
27819;DHT22;15192;44.854;10.046;2023-07-20T00:51:44;25.50;99.90
27819;DHT22;15192;44.854;10.046;2023-07-20T00:54:12;25.20;99.90
27819;DHT22;15192;44.854;10.046;2023-07-20T00:56:40;25.10;99.90
27819;DHT22;15192;44.854;10.046;2023-07-20T00:59:07;24.80;99.90
27819;DHT22;15192;44.854;10.046;2023-07-20T01:01:36;24.60;99.90
27819;DHT22;15192;44.854;10.046;2023-07-20T01:04:04;24.50;99.90
27819;DHT22;15192;44.854;10.046;2023-07-20T01:09:02;24.50;99.90
27819;DHT22;15192;44.854;10.046;2023-07-20T01:14:17;24.50;99.90
27819;DHT22;15192;44.854;10.046;2023-07-20T01:16:45;24.50;99.90
27819;DHT22;15192;44.854;10.046;2023-07-20T01:19:14;24.50;99.90
27819;DHT22;15192;44.854;10.046;2023-07-20T01:21:48;24.50;99.90
27819;DHT22;15192;44.854;10.046;2023-07-20T01:26:56;24.40;99.90
27819;DHT22;15192;44.854;10.046;2023-07-20T01:31:51;24.20;99.90
27819;DHT22;15192;44.854;10.046;2023-07-20T01:34:20;24.20;99.90
27819;DHT22;15192;44.854;10.046;2023-07-20T01:36:49;24.20;99.90
27819;DHT22;15192;44.854;10.046;2023-07-20T01:39:18;24.20;99.90
27819;DHT22;15192;44.854;10.046;2023-07-20T01:41:47;24.20;99.90
27819;DHT22;15192;44.854;10.046;2023-07-20T01:44:15;24.10;99.90
27819;DHT22;15192;44.854;10.046;2023-07-20T01:46:43;24.10;99.90
27819;DHT22;15192;44.854;10.046;2023-07-20T01:49:11;24.00;99.90
27819;DHT22;15192;44.854;10.046;2023-07-20T01:51:39;24.00;99.90
27819;DHT22;15192;44.854;10.046;2023-07-20T01:54:07;23.90;99.90
27819;DHT22;15192;44.854;10.046;2023-07-20T01:56:36;23.90;99.90
27819;DHT22;15192;44.854;10.046;2023-07-20T01:59:05;23.80;99.90
27819;DHT22;15192;44.854;10.046;2023-07-20T02:01:33;23.80;99.90
27819;DHT22;15192;44.854;10.046;2023-07-20T02:04:01;23.80;99.90
27819;DHT22;15192;44.854;10.046;2023-07-20T02:06:30;23.80;99.90
27819;DHT22;15192;44.854;10.046;2023-07-20T02:08:58;23.70;99.90
27819;DHT22;15192;44.854;10.046;2023-07-20T02:11:26;23.60;99.90
27819;DHT22;15192;44.854;10.046;2023-07-20T02:13:54;23.60;99.90
27819;DHT22;15192;44.854;10.046;2023-07-20T02:16:23;23.50;99.90
27819;DHT22;15192;44.854;10.046;2023-07-20T02:18:51;23.40;99.90
27819;DHT22;15192;44.854;10.046;2023-07-20T02:21:20;23.30;99.90
27819;DHT22;15192;44.854;10.046;2023-07-20T02:23:48;23.30;99.90
27819;DHT22;15192;44.854;10.046;2023-07-20T02:26:16;23.20;99.90
27819;DHT22;15192;44.854;10.046;2023-07-20T02:28:44;23.20;99.90
27819;DHT22;15192;44.854;10.046;2023-07-20T02:31:12;23.10;99.90
27819;DHT22;15192;44.854;10.046;2023-07-20T02:33:40;23.10;99.90
27819;DHT22;15192;44.854;10.046;2023-07-20T02:36:08;23.00;99.90
27819;DHT22;15192;44.854;10.046;2023-07-20T02:38:36;23.00;99.90
27819;DHT22;15192;44.854;10.046;2023-07-20T02:41:04;23.00;99.90
27819;DHT22;15192;44.854;10.046;2023-07-20T02:43:32;23.00;99.90
27819;DHT22;15192;44.854;10.046;2023-07-20T02:46:00;23.00;99.90
27819;DHT22;15192;44.854;10.046;2023-07-20T02:48:28;23.00;99.90
27819;DHT22;15192;44.854;10.046;2023-07-20T02:50:56;23.00;99.90
27819;DHT22;15192;44.854;10.046;2023-07-20T02:53:24;23.00;99.90
27819;DHT22;15192;44.854;10.046;2023-07-20T02:55:52;23.00;99.90
27819;DHT22;15192;44.854;10.046;2023-07-20T02:58:20;23.00;99.90
27819;DHT22;15192;44.854;10.046;2023-07-20T03:00:48;22.90;99.90
27819;DHT22;15192;44.854;10.046;2023-07-20T03:03:16;22.90;99.90
27819;DHT22;15192;44.854;10.046;2023-07-20T03:05:44;22.90;99.90
27819;DHT22;15192;44.854;10.046;2023-07-20T03:08:12;22.80;99.90
27819;DHT22;15192;44.854;10.046;2023-07-20T03:10:40;22.90;99.90
27819;DHT22;15192;44.854;10.046;2023-07-20T03:13:09;22.90;99.90
27819;DHT22;15192;44.854;10.046;2023-07-20T03:15:37;22.90;99.90
27819;DHT22;15192;44.854;10.046;2023-07-20T03:18:05;22.90;99.90
27819;DHT22;15192;44.854;10.046;2023-07-20T03:20:34;22.90;99.90
27819;DHT22;15192;44.854;10.046;2023-07-20T03:23:03;22.80;99.90
27819;DHT22;15192;44.854;10.046;2023-07-20T03:25:31;22.80;99.90
27819;DHT22;15192;44.854;10.046;2023-07-20T03:28:00;22.80;99.90
27819;DHT22;15192;44.854;10.046;2023-07-20T03:30:28;22.80;99.90
27819;DHT22;15192;44.854;10.046;2023-07-20T03:32:56;22.80;99.90
27819;DHT22;15192;44.854;10.046;2023-07-20T03:35:24;22.80;99.90
27819;DHT22;15192;44.854;10.046;2023-07-20T03:37:52;22.70;99.90
27819;DHT22;15192;44.854;10.046;2023-07-20T03:40:20;22.80;99.90
27819;DHT22;15192;44.854;10.046;2023-07-20T03:42:49;22.80;99.90
27819;DHT22;15192;44.854;10.046;2023-07-20T03:45:17;22.80;99.90
27819;DHT22;15192;44.854;10.046;2023-07-20T03:47:47;22.90;99.90
27819;DHT22;15192;44.854;10.046;2023-07-20T03:50:15;22.90;99.90
27819;DHT22;15192;44.854;10.046;2023-07-20T03:52:43;23.00;99.90
27819;DHT22;15192;44.854;10.046;2023-07-20T03:55:11;23.00;99.90
27819;DHT22;15192;44.854;10.046;2023-07-20T03:57:39;23.00;99.90
27819;DHT22;15192;44.854;10.046;2023-07-20T04:00:07;22.90;99.90
27819;DHT22;15192;44.854;10.046;2023-07-20T04:02:38;23.00;99.90
27819;DHT22;15192;44.854;10.046;2023-07-20T04:05:06;23.00;99.90
27819;DHT22;15192;44.854;10.046;2023-07-20T04:07:34;23.00;99.90
27819;DHT22;15192;44.854;10.046;2023-07-20T04:10:02;23.00;99.90
27819;DHT22;15192;44.854;10.046;2023-07-20T04:12:30;22.90;99.90
27819;DHT22;15192;44.854;10.046;2023-07-20T04:14:58;22.90;99.90
27819;DHT22;15192;44.854;10.046;2023-07-20T04:17:28;22.90;99.90
27819;DHT22;15192;44.854;10.046;2023-07-20T04:19:56;23.00;99.90
27819;DHT22;15192;44.854;10.046;2023-07-20T04:22:24;23.00;99.90
27819;DHT22;15192;44.854;10.046;2023-07-20T04:24:52;23.10;99.90
27819;DHT22;15192;44.854;10.046;2023-07-20T04:27:21;23.10;99.90
27819;DHT22;15192;44.854;10.046;2023-07-20T04:29:49;23.30;99.90
27819;DHT22;15192;44.854;10.046;2023-07-20T04:32:17;23.40;99.90
27819;DHT22;15192;44.854;10.046;2023-07-20T04:34:45;23.50;99.90
27819;DHT22;15192;44.854;10.046;2023-07-20T04:37:13;23.60;99.90
27819;DHT22;15192;44.854;10.046;2023-07-20T04:39:41;23.60;99.90
27819;DHT22;15192;44.854;10.046;2023-07-20T04:42:10;23.70;99.90
27819;DHT22;15192;44.854;10.046;2023-07-20T04:44:39;23.80;99.90
27819;DHT22;15192;44.854;10.046;2023-07-20T04:47:08;23.90;99.90
27819;DHT22;15192;44.854;10.046;2023-07-20T04:49:38;23.90;99.90
27819;DHT22;15192;44.854;10.046;2023-07-20T04:52:06;24.10;99.90
27819;DHT22;15192;44.854;10.046;2023-07-20T04:54:34;24.10;99.90
27819;DHT22;15192;44.854;10.046;2023-07-20T04:57:03;24.20;99.90
27819;DHT22;15192;44.854;10.046;2023-07-20T04:59:32;24.40;99.90
27819;DHT22;15192;44.854;10.046;2023-07-20T05:02:00;24.90;99.90
27819;DHT22;15192;44.854;10.046;2023-07-20T05:04:28;25.50;99.90
27819;DHT22;15192;44.854;10.046;2023-07-20T05:06:56;26.20;99.90
27819;DHT22;15192;44.854;10.046;2023-07-20T05:09:24;26.70;99.90
27819;DHT22;15192;44.854;10.046;2023-07-20T05:11:52;27.20;99.90
27819;DHT22;15192;44.854;10.046;2023-07-20T05:14:20;27.70;99.90
27819;DHT22;15192;44.854;10.046;2023-07-20T05:16:50;28.20;99.90
27819;DHT22;15192;44.854;10.046;2023-07-20T05:19:18;28.80;99.90
27819;DHT22;15192;44.854;10.046;2023-07-20T05:21:46;29.10;99.90
27819;DHT22;15192;44.854;10.046;2023-07-20T05:24:14;29.40;99.90
27819;DHT22;15192;44.854;10.046;2023-07-20T05:26:42;29.80;99.90
27819;DHT22;15192;44.854;10.046;2023-07-20T05:29:10;30.50;99.90
27819;DHT22;15192;44.854;10.046;2023-07-20T05:31:38;31.00;99.90
27819;DHT22;15192;44.854;10.046;2023-07-20T05:34:06;31.10;99.90
27819;DHT22;15192;44.854;10.046;2023-07-20T05:36:34;31.30;99.90
27819;DHT22;15192;44.854;10.046;2023-07-20T05:39:03;31.40;99.90
27819;DHT22;15192;44.854;10.046;2023-07-20T05:41:31;31.60;99.90
27819;DHT22;15192;44.854;10.046;2023-07-20T05:43:59;32.20;99.90
27819;DHT22;15192;44.854;10.046;2023-07-20T05:46:27;32.70;99.90
27819;DHT22;15192;44.854;10.046;2023-07-20T05:48:55;32.70;99.90
27819;DHT22;15192;44.854;10.046;2023-07-20T05:51:23;32.40;99.90
27819;DHT22;15192;44.854;10.046;2023-07-20T05:53:51;32.10;99.90
27819;DHT22;15192;44.854;10.046;2023-07-20T05:56:19;31.60;99.90
27819;DHT22;15192;44.854;10.046;2023-07-20T05:58:50;31.30;99.90
27819;DHT22;15192;44.854;10.046;2023-07-20T06:01:18;31.00;99.90
27819;DHT22;15192;44.854;10.046;2023-07-20T06:03:48;30.90;99.90
27819;DHT22;15192;44.854;10.046;2023-07-20T06:06:15;30.70;99.90
27819;DHT22;15192;44.854;10.046;2023-07-20T06:08:43;30.70;99.90
27819;DHT22;15192;44.854;10.046;2023-07-20T06:11:11;30.70;99.90
27819;DHT22;15192;44.854;10.046;2023-07-20T06:13:39;30.60;99.90
27819;DHT22;15192;44.854;10.046;2023-07-20T06:16:07;30.60;99.90
27819;DHT22;15192;44.854;10.046;2023-07-20T06:18:35;30.50;99.90
27819;DHT22;15192;44.854;10.046;2023-07-20T06:21:03;30.60;99.90
27819;DHT22;15192;44.854;10.046;2023-07-20T06:23:31;30.60;99.90
27819;DHT22;15192;44.854;10.046;2023-07-20T06:25:59;30.60;99.90
27819;DHT22;15192;44.854;10.046;2023-07-20T06:28:27;30.50;99.90
27819;DHT22;15192;44.854;10.046;2023-07-20T06:31:04;30.60;99.90
27819;DHT22;15192;44.854;10.046;2023-07-20T06:33:28;30.50;99.90
27819;DHT22;15192;44.854;10.046;2023-07-20T06:35:57;30.50;99.90
27819;DHT22;15192;44.854;10.046;2023-07-20T06:38:25;30.60;99.90
27819;DHT22;15192;44.854;10.046;2023-07-20T06:40:53;30.70;99.90
27819;DHT22;15192;44.854;10.046;2023-07-20T06:43:21;30.60;99.90
27819;DHT22;15192;44.854;10.046;2023-07-20T06:45:52;30.70;99.90
27819;DHT22;15192;44.854;10.046;2023-07-20T06:48:23;30.60;99.90
27819;DHT22;15192;44.854;10.046;2023-07-20T06:50:51;30.30;99.90
27819;DHT22;15192;44.854;10.046;2023-07-20T06:53:19;30.00;99.90
27819;DHT22;15192;44.854;10.046;2023-07-20T06:55:47;30.00;99.90
27819;DHT22;15192;44.854;10.046;2023-07-20T06:58:15;30.10;99.90
27819;DHT22;15192;44.854;10.046;2023-07-20T07:00:43;30.30;99.90
27819;DHT22;15192;44.854;10.046;2023-07-20T07:03:11;30.50;99.90
27819;DHT22;15192;44.854;10.046;2023-07-20T07:05:39;30.60;99.90
27819;DHT22;15192;44.854;10.046;2023-07-20T07:08:07;30.60;99.90
27819;DHT22;15192;44.854;10.046;2023-07-20T07:10:35;30.60;99.90
27819;DHT22;15192;44.854;10.046;2023-07-20T07:13:03;30.70;99.90
27819;DHT22;15192;44.854;10.046;2023-07-20T07:15:31;30.90;99.90
27819;DHT22;15192;44.854;10.046;2023-07-20T07:17:59;30.90;99.90
27819;DHT22;15192;44.854;10.046;2023-07-20T07:20:27;31.00;99.90
27819;DHT22;15192;44.854;10.046;2023-07-20T07:22:55;31.00;99.90
27819;DHT22;15192;44.854;10.046;2023-07-20T07:25:24;31.00;99.90
27819;DHT22;15192;44.854;10.046;2023-07-20T07:27:52;31.10;99.90
27819;DHT22;15192;44.854;10.046;2023-07-20T07:30:20;31.10;99.90
27819;DHT22;15192;44.854;10.046;2023-07-20T07:32:48;31.10;99.90
27819;DHT22;15192;44.854;10.046;2023-07-20T07:35:16;31.00;99.90
27819;DHT22;15192;44.854;10.046;2023-07-20T07:37:44;31.20;99.90
27819;DHT22;15192;44.854;10.046;2023-07-20T07:40:13;31.30;99.90
27819;DHT22;15192;44.854;10.046;2023-07-20T07:42:41;31.40;99.90
27819;DHT22;15192;44.854;10.046;2023-07-20T07:45:09;31.40;99.90
27819;DHT22;15192;44.854;10.046;2023-07-20T07:47:37;31.50;99.90
27819;DHT22;15192;44.854;10.046;2023-07-20T07:50:06;31.50;99.90
27819;DHT22;15192;44.854;10.046;2023-07-20T07:52:34;31.60;99.90
27819;DHT22;15192;44.854;10.046;2023-07-20T07:55:02;31.80;99.90
27819;DHT22;15192;44.854;10.046;2023-07-20T07:57:31;31.90;99.90
27819;DHT22;15192;44.854;10.046;2023-07-20T07:59:59;32.10;99.90
27819;DHT22;15192;44.854;10.046;2023-07-20T08:02:27;32.30;99.90
27819;DHT22;15192;44.854;10.046;2023-07-20T08:04:55;32.30;99.90
27819;DHT22;15192;44.854;10.046;2023-07-20T08:07:23;32.30;99.90
27819;DHT22;15192;44.854;10.046;2023-07-20T08:09:51;32.40;99.90
27819;DHT22;15192;44.854;10.046;2023-07-20T08:12:19;32.50;99.90
27819;DHT22;15192;44.854;10.046;2023-07-20T08:14:47;32.60;99.90
27819;DHT22;15192;44.854;10.046;2023-07-20T08:17:15;32.70;99.90
27819;DHT22;15192;44.854;10.046;2023-07-20T08:19:44;32.90;99.90
27819;DHT22;15192;44.854;10.046;2023-07-20T08:22:12;32.90;99.90
27819;DHT22;15192;44.854;10.046;2023-07-20T08:24:41;32.80;99.90
27819;DHT22;15192;44.854;10.046;2023-07-20T08:27:09;32.40;99.90
27819;DHT22;15192;44.854;10.046;2023-07-20T08:29:37;32.20;99.90
27819;DHT22;15192;44.854;10.046;2023-07-20T08:32:05;32.00;99.90
27819;DHT22;15192;44.854;10.046;2023-07-20T08:34:35;32.00;99.90
27819;DHT22;15192;44.854;10.046;2023-07-20T08:37:03;32.00;99.90
27819;DHT22;15192;44.854;10.046;2023-07-20T08:39:31;32.00;99.90
27819;DHT22;15192;44.854;10.046;2023-07-20T08:41:59;32.00;99.90
27819;DHT22;15192;44.854;10.046;2023-07-20T08:44:31;32.10;99.90
27819;DHT22;15192;44.854;10.046;2023-07-20T08:47:00;32.00;99.90
27819;DHT22;15192;44.854;10.046;2023-07-20T08:49:36;32.10;99.90
27819;DHT22;15192;44.854;10.046;2023-07-20T08:51:59;32.10;99.90
27819;DHT22;15192;44.854;10.046;2023-07-20T08:54:29;32.30;99.90
27819;DHT22;15192;44.854;10.046;2023-07-20T08:57:02;32.30;99.90
27819;DHT22;15192;44.854;10.046;2023-07-20T08:59:31;32.30;99.90
27819;DHT22;15192;44.854;10.046;2023-07-20T09:01:59;32.40;99.90
27819;DHT22;15192;44.854;10.046;2023-07-20T09:04:27;32.60;99.90
27819;DHT22;15192;44.854;10.046;2023-07-20T09:06:55;32.70;99.90
27819;DHT22;15192;44.854;10.046;2023-07-20T09:09:24;32.80;99.90
27819;DHT22;15192;44.854;10.046;2023-07-20T09:11:52;32.60;99.90
27819;DHT22;15192;44.854;10.046;2023-07-20T09:14:20;32.60;99.90
27819;DHT22;15192;44.854;10.046;2023-07-20T09:16:53;32.80;99.90
27819;DHT22;15192;44.854;10.046;2023-07-20T09:19:19;33.00;99.90
27819;DHT22;15192;44.854;10.046;2023-07-20T09:21:52;33.20;99.90
27819;DHT22;15192;44.854;10.046;2023-07-20T09:24:19;33.20;99.90
27819;DHT22;15192;44.854;10.046;2023-07-20T09:26:48;33.20;99.90
27819;DHT22;15192;44.854;10.046;2023-07-20T09:29:20;33.20;99.90
27819;DHT22;15192;44.854;10.046;2023-07-20T09:32:01;33.00;99.90
27819;DHT22;15192;44.854;10.046;2023-07-20T09:34:29;32.90;99.90
27819;DHT22;15192;44.854;10.046;2023-07-20T09:37:00;32.80;99.90
27819;DHT22;15192;44.854;10.046;2023-07-20T09:39:28;32.70;99.90
27819;DHT22;15192;44.854;10.046;2023-07-20T09:42:00;32.70;99.90
27819;DHT22;15192;44.854;10.046;2023-07-20T09:44:27;32.90;99.90
27819;DHT22;15192;44.854;10.046;2023-07-20T09:46:55;32.90;99.90
27819;DHT22;15192;44.854;10.046;2023-07-20T09:49:23;32.90;99.90
27819;DHT22;15192;44.854;10.046;2023-07-20T09:51:51;32.90;99.90
27819;DHT22;15192;44.854;10.046;2023-07-20T09:54:21;32.70;99.90
27819;DHT22;15192;44.854;10.046;2023-07-20T09:56:50;32.40;99.90
27819;DHT22;15192;44.854;10.046;2023-07-20T09:59:19;32.20;99.90
27819;DHT22;15192;44.854;10.046;2023-07-20T10:01:47;32.00;99.90
27819;DHT22;15192;44.854;10.046;2023-07-20T10:04:17;31.90;99.90
27819;DHT22;15192;44.854;10.046;2023-07-20T10:06:46;31.80;99.90
27819;DHT22;15192;44.854;10.046;2023-07-20T10:09:16;31.70;99.90
27819;DHT22;15192;44.854;10.046;2023-07-20T10:11:45;31.60;99.90
27819;DHT22;15192;44.854;10.046;2023-07-20T10:14:14;31.60;99.90
27819;DHT22;15192;44.854;10.046;2023-07-20T10:16:49;31.60;99.90
27819;DHT22;15192;44.854;10.046;2023-07-20T10:19:18;31.40;99.90
27819;DHT22;15192;44.854;10.046;2023-07-20T10:21:48;31.40;99.90
27819;DHT22;15192;44.854;10.046;2023-07-20T10:24:17;31.30;99.90
27819;DHT22;15192;44.854;10.046;2023-07-20T10:26:46;31.40;99.90
27819;DHT22;15192;44.854;10.046;2023-07-20T10:29:14;31.50;99.90
27819;DHT22;15192;44.854;10.046;2023-07-20T10:31:42;31.50;99.90
27819;DHT22;15192;44.854;10.046;2023-07-20T10:34:10;31.50;99.90
27819;DHT22;15192;44.854;10.046;2023-07-20T10:36:46;31.40;99.90
27819;DHT22;15192;44.854;10.046;2023-07-20T10:39:27;31.40;99.90
27819;DHT22;15192;44.854;10.046;2023-07-20T10:41:59;31.40;99.90
27819;DHT22;15192;44.854;10.046;2023-07-20T10:44:21;31.50;99.90
27819;DHT22;15192;44.854;10.046;2023-07-20T10:46:49;31.40;99.90
27819;DHT22;15192;44.854;10.046;2023-07-20T10:49:17;31.50;99.90
27819;DHT22;15192;44.854;10.046;2023-07-20T10:51:47;31.70;99.90
27819;DHT22;15192;44.854;10.046;2023-07-20T10:56:46;31.70;99.90
27819;DHT22;15192;44.854;10.046;2023-07-20T10:59:18;31.50;99.90
27819;DHT22;15192;44.854;10.046;2023-07-20T11:01:47;31.50;99.90
27819;DHT22;15192;44.854;10.046;2023-07-20T11:04:18;31.50;99.90
27819;DHT22;15192;44.854;10.046;2023-07-20T11:06:46;31.60;99.90
27819;DHT22;15192;44.854;10.046;2023-07-20T11:09:14;31.50;99.90
27819;DHT22;15192;44.854;10.046;2023-07-20T11:11:43;31.50;99.90
27819;DHT22;15192;44.854;10.046;2023-07-20T11:14:21;31.50;99.90
27819;DHT22;15192;44.854;10.046;2023-07-20T11:16:50;31.60;99.90
27819;DHT22;15192;44.854;10.046;2023-07-20T11:19:19;31.60;99.90
27819;DHT22;15192;44.854;10.046;2023-07-20T11:21:49;31.60;99.90
27819;DHT22;15192;44.854;10.046;2023-07-20T11:24:17;31.60;99.90
27819;DHT22;15192;44.854;10.046;2023-07-20T11:26:49;31.50;99.90
27819;DHT22;15192;44.854;10.046;2023-07-20T11:29:17;31.50;99.90
27819;DHT22;15192;44.854;10.046;2023-07-20T11:31:46;31.50;99.90
27819;DHT22;15192;44.854;10.046;2023-07-20T11:34:18;31.50;99.90
27819;DHT22;15192;44.854;10.046;2023-07-20T11:36:47;31.50;99.90
27819;DHT22;15192;44.854;10.046;2023-07-20T11:39:19;31.50;99.90
27819;DHT22;15192;44.854;10.046;2023-07-20T11:41:53;31.60;99.90
27819;DHT22;15192;44.854;10.046;2023-07-20T11:44:20;31.60;99.90
27819;DHT22;15192;44.854;10.046;2023-07-20T11:46:49;31.60;99.90
27819;DHT22;15192;44.854;10.046;2023-07-20T11:49:17;31.60;99.90
27819;DHT22;15192;44.854;10.046;2023-07-20T11:51:45;31.50;99.90
27819;DHT22;15192;44.854;10.046;2023-07-20T11:54:13;31.60;99.90
27819;DHT22;15192;44.854;10.046;2023-07-20T11:56:41;31.60;99.90
27819;DHT22;15192;44.854;10.046;2023-07-20T11:59:11;31.60;99.90
27819;DHT22;15192;44.854;10.046;2023-07-20T12:01:39;31.70;99.90
27819;DHT22;15192;44.854;10.046;2023-07-20T12:04:07;31.80;99.90
27819;DHT22;15192;44.854;10.046;2023-07-20T12:06:35;31.80;99.90
27819;DHT22;15192;44.854;10.046;2023-07-20T12:09:03;31.80;99.90
27819;DHT22;15192;44.854;10.046;2023-07-20T12:11:38;32.00;99.90
27819;DHT22;15192;44.854;10.046;2023-07-20T12:14:07;31.90;99.90
27819;DHT22;15192;44.854;10.046;2023-07-20T12:16:35;31.80;99.90
27819;DHT22;15192;44.854;10.046;2023-07-20T12:21:34;31.80;99.90
27819;DHT22;15192;44.854;10.046;2023-07-20T12:24:07;31.70;99.90
27819;DHT22;15192;44.854;10.046;2023-07-20T12:26:36;31.70;99.90
27819;DHT22;15192;44.854;10.046;2023-07-20T12:29:04;31.80;99.90
27819;DHT22;15192;44.854;10.046;2023-07-20T12:31:33;31.90;99.90
27819;DHT22;15192;44.854;10.046;2023-07-20T12:34:01;31.90;99.90
27819;DHT22;15192;44.854;10.046;2023-07-20T12:36:29;32.10;99.90
27819;DHT22;15192;44.854;10.046;2023-07-20T12:38:58;32.10;99.90
27819;DHT22;15192;44.854;10.046;2023-07-20T12:41:28;32.10;99.90
27819;DHT22;15192;44.854;10.046;2023-07-20T12:43:56;32.20;99.90
27819;DHT22;15192;44.854;10.046;2023-07-20T12:46:25;32.20;99.90
27819;DHT22;15192;44.854;10.046;2023-07-20T12:48:55;32.20;99.90
27819;DHT22;15192;44.854;10.046;2023-07-20T12:51:23;32.20;99.90
27819;DHT22;15192;44.854;10.046;2023-07-20T12:53:51;32.30;99.90
27819;DHT22;15192;44.854;10.046;2023-07-20T12:56:19;32.20;99.90
27819;DHT22;15192;44.854;10.046;2023-07-20T12:58:47;32.30;99.90
27819;DHT22;15192;44.854;10.046;2023-07-20T13:01:17;32.20;99.90
27819;DHT22;15192;44.854;10.046;2023-07-20T13:03:45;32.40;99.90
27819;DHT22;15192;44.854;10.046;2023-07-20T13:06:12;32.30;99.90
27819;DHT22;15192;44.854;10.046;2023-07-20T13:08:40;32.40;99.90
27819;DHT22;15192;44.854;10.046;2023-07-20T13:11:09;32.30;99.90
27819;DHT22;15192;44.854;10.046;2023-07-20T13:13:37;32.40;99.90
27819;DHT22;15192;44.854;10.046;2023-07-20T13:16:05;32.40;99.90
27819;DHT22;15192;44.854;10.046;2023-07-20T13:18:33;32.40;99.90
27819;DHT22;15192;44.854;10.046;2023-07-20T13:21:01;32.40;99.90
27819;DHT22;15192;44.854;10.046;2023-07-20T13:23:30;32.50;99.90
27819;DHT22;15192;44.854;10.046;2023-07-20T13:25:57;32.50;99.90
27819;DHT22;15192;44.854;10.046;2023-07-20T13:28:26;32.50;99.90
27819;DHT22;15192;44.854;10.046;2023-07-20T13:30:54;32.40;99.90
27819;DHT22;15192;44.854;10.046;2023-07-20T13:33:22;32.60;99.90
27819;DHT22;15192;44.854;10.046;2023-07-20T13:35:50;32.70;99.90
27819;DHT22;15192;44.854;10.046;2023-07-20T13:38:18;32.70;99.90
27819;DHT22;15192;44.854;10.046;2023-07-20T13:40:47;32.70;99.90
27819;DHT22;15192;44.854;10.046;2023-07-20T13:43:15;32.60;99.90
27819;DHT22;15192;44.854;10.046;2023-07-20T13:45:43;32.50;99.90
27819;DHT22;15192;44.854;10.046;2023-07-20T13:48:11;32.50;99.90
27819;DHT22;15192;44.854;10.046;2023-07-20T13:50:39;32.60;99.90
27819;DHT22;15192;44.854;10.046;2023-07-20T13:53:07;32.60;99.90
27819;DHT22;15192;44.854;10.046;2023-07-20T13:55:34;32.70;99.90
27819;DHT22;15192;44.854;10.046;2023-07-20T13:58:04;32.70;99.90
27819;DHT22;15192;44.854;10.046;2023-07-20T14:00:32;32.90;99.90
27819;DHT22;15192;44.854;10.046;2023-07-20T14:03:00;32.90;99.90
27819;DHT22;15192;44.854;10.046;2023-07-20T14:05:28;32.90;99.90
27819;DHT22;15192;44.854;10.046;2023-07-20T14:07:56;32.90;99.90
27819;DHT22;15192;44.854;10.046;2023-07-20T14:10:24;32.90;99.90
27819;DHT22;15192;44.854;10.046;2023-07-20T14:12:51;32.90;99.90
27819;DHT22;15192;44.854;10.046;2023-07-20T14:15:19;32.90;99.90
27819;DHT22;15192;44.854;10.046;2023-07-20T14:17:47;32.90;99.90
27819;DHT22;15192;44.854;10.046;2023-07-20T14:20:15;33.00;99.90
27819;DHT22;15192;44.854;10.046;2023-07-20T14:22:43;32.90;99.90
27819;DHT22;15192;44.854;10.046;2023-07-20T14:25:11;32.90;99.90
27819;DHT22;15192;44.854;10.046;2023-07-20T14:27:39;33.00;99.90
27819;DHT22;15192;44.854;10.046;2023-07-20T14:30:07;33.00;99.90
27819;DHT22;15192;44.854;10.046;2023-07-20T14:32:36;32.90;99.90
27819;DHT22;15192;44.854;10.046;2023-07-20T14:35:04;33.00;99.90
27819;DHT22;15192;44.854;10.046;2023-07-20T14:37:33;33.00;99.90
27819;DHT22;15192;44.854;10.046;2023-07-20T14:40:01;33.00;99.90
27819;DHT22;15192;44.854;10.046;2023-07-20T14:42:31;33.00;99.90
27819;DHT22;15192;44.854;10.046;2023-07-20T14:44:59;33.10;99.90
27819;DHT22;15192;44.854;10.046;2023-07-20T14:47:27;33.00;99.90
27819;DHT22;15192;44.854;10.046;2023-07-20T14:49:55;33.10;99.90
27819;DHT22;15192;44.854;10.046;2023-07-20T14:52:23;33.10;99.90
27819;DHT22;15192;44.854;10.046;2023-07-20T14:54:51;33.20;99.90
27819;DHT22;15192;44.854;10.046;2023-07-20T14:57:19;33.20;99.90
27819;DHT22;15192;44.854;10.046;2023-07-20T14:59:49;33.20;99.90
27819;DHT22;15192;44.854;10.046;2023-07-20T15:02:17;33.00;99.90
27819;DHT22;15192;44.854;10.046;2023-07-20T15:04:46;33.10;99.90
27819;DHT22;15192;44.854;10.046;2023-07-20T15:07:15;33.20;99.90
27819;DHT22;15192;44.854;10.046;2023-07-20T15:09:43;33.20;99.90
27819;DHT22;15192;44.854;10.046;2023-07-20T15:12:11;33.20;99.90
27819;DHT22;15192;44.854;10.046;2023-07-20T15:14:40;33.10;99.90
27819;DHT22;15192;44.854;10.046;2023-07-20T15:17:14;33.20;99.90
27819;DHT22;15192;44.854;10.046;2023-07-20T15:19:38;33.20;99.90
27819;DHT22;15192;44.854;10.046;2023-07-20T15:22:06;33.20;99.90
27819;DHT22;15192;44.854;10.046;2023-07-20T15:24:35;33.20;99.90
27819;DHT22;15192;44.854;10.046;2023-07-20T15:27:03;33.30;99.90
27819;DHT22;15192;44.854;10.046;2023-07-20T15:29:31;33.30;99.90
27819;DHT22;15192;44.854;10.046;2023-07-20T15:31:59;33.30;99.90
27819;DHT22;15192;44.854;10.046;2023-07-20T15:34:27;33.20;99.90
27819;DHT22;15192;44.854;10.046;2023-07-20T15:36:55;33.20;99.90
27819;DHT22;15192;44.854;10.046;2023-07-20T15:39:23;33.20;99.90